sensor_id;sensor_type;location;lat;lon;timestamp;temperature;humidity
27384;DHT22;14851;51.166;4.760;2023-01-01T00:01:24;15.80;99.90
27384;DHT22;14851;51.166;4.760;2023-01-01T00:03:50;15.80;99.90
27384;DHT22;14851;51.166;4.760;2023-01-01T00:06:19;15.80;99.90
27384;DHT22;14851;51.166;4.760;2023-01-01T00:08:46;15.80;99.90
27384;DHT22;14851;51.166;4.760;2023-01-01T00:11:11;15.80;99.90
27384;DHT22;14851;51.166;4.760;2023-01-01T00:13:38;15.80;99.90
27384;DHT22;14851;51.166;4.760;2023-01-01T00:16:06;15.80;99.90
27384;DHT22;14851;51.166;4.760;2023-01-01T00:18:32;15.80;99.90
27384;DHT22;14851;51.166;4.760;2023-01-01T00:21:04;15.80;99.90
27384;DHT22;14851;51.166;4.760;2023-01-01T00:23:30;15.80;99.90
27384;DHT22;14851;51.166;4.760;2023-01-01T00:25:56;15.80;99.90
27384;DHT22;14851;51.166;4.760;2023-01-01T00:28:22;15.80;99.90
27384;DHT22;14851;51.166;4.760;2023-01-01T00:30:51;15.80;99.90
27384;DHT22;14851;51.166;4.760;2023-01-01T00:33:17;15.80;99.90
27384;DHT22;14851;51.166;4.760;2023-01-01T00:35:43;15.70;99.90
27384;DHT22;14851;51.166;4.760;2023-01-01T00:38:10;15.70;99.90
27384;DHT22;14851;51.166;4.760;2023-01-01T00:40:36;15.70;99.90
27384;DHT22;14851;51.166;4.760;2023-01-01T00:43:05;15.70;99.90
27384;DHT22;14851;51.166;4.760;2023-01-01T00:45:34;15.70;99.90
27384;DHT22;14851;51.166;4.760;2023-01-01T00:48:00;15.70;99.90
27384;DHT22;14851;51.166;4.760;2023-01-01T00:50:26;15.70;99.90
27384;DHT22;14851;51.166;4.760;2023-01-01T00:52:52;15.70;99.90
27384;DHT22;14851;51.166;4.760;2023-01-01T00:55:17;15.70;99.90
27384;DHT22;14851;51.166;4.760;2023-01-01T00:57:43;15.60;99.90
27384;DHT22;14851;51.166;4.760;2023-01-01T01:00:10;15.60;99.90
27384;DHT22;14851;51.166;4.760;2023-01-01T01:02:35;15.50;99.90
27384;DHT22;14851;51.166;4.760;2023-01-01T01:05:04;15.50;99.90
27384;DHT22;14851;51.166;4.760;2023-01-01T01:07:36;15.40;99.90
27384;DHT22;14851;51.166;4.760;2023-01-01T01:10:04;15.40;99.90
27384;DHT22;14851;51.166;4.760;2023-01-01T01:12:30;15.40;99.90
27384;DHT22;14851;51.166;4.760;2023-01-01T01:14:56;15.40;99.90
27384;DHT22;14851;51.166;4.760;2023-01-01T01:17:22;15.50;99.90
27384;DHT22;14851;51.166;4.760;2023-01-01T01:19:49;15.40;99.90
27384;DHT22;14851;51.166;4.760;2023-01-01T01:22:15;15.40;99.90
27384;DHT22;14851;51.166;4.760;2023-01-01T01:24:41;15.40;99.90
27384;DHT22;14851;51.166;4.760;2023-01-01T01:27:08;15.40;99.90
27384;DHT22;14851;51.166;4.760;2023-01-01T01:29:34;15.40;99.90
27384;DHT22;14851;51.166;4.760;2023-01-01T01:31:59;15.40;99.90
27384;DHT22;14851;51.166;4.760;2023-01-01T01:34:26;15.40;99.90
27384;DHT22;14851;51.166;4.760;2023-01-01T01:36:52;15.40;99.90
27384;DHT22;14851;51.166;4.760;2023-01-01T01:39:18;15.30;99.90
27384;DHT22;14851;51.166;4.760;2023-01-01T01:41:44;15.30;99.90
27384;DHT22;14851;51.166;4.760;2023-01-01T01:46:54;15.40;99.90
27384;DHT22;14851;51.166;4.760;2023-01-01T01:49:25;15.40;99.90
27384;DHT22;14851;51.166;4.760;2023-01-01T01:51:52;15.40;99.90
27384;DHT22;14851;51.166;4.760;2023-01-01T01:54:22;15.40;99.90
27384;DHT22;14851;51.166;4.760;2023-01-01T01:56:49;15.40;99.90
27384;DHT22;14851;51.166;4.760;2023-01-01T01:59:17;15.30;99.90
27384;DHT22;14851;51.166;4.760;2023-01-01T02:01:47;15.30;99.90
27384;DHT22;14851;51.166;4.760;2023-01-01T02:04:13;15.40;99.90
27384;DHT22;14851;51.166;4.760;2023-01-01T02:06:39;15.30;99.90
27384;DHT22;14851;51.166;4.760;2023-01-01T02:09:06;15.40;99.90
27384;DHT22;14851;51.166;4.760;2023-01-01T02:11:35;15.30;99.90
27384;DHT22;14851;51.166;4.760;2023-01-01T02:14:02;15.30;99.90
27384;DHT22;14851;51.166;4.760;2023-01-01T02:18:56;15.20;99.90
27384;DHT22;14851;51.166;4.760;2023-01-01T02:21:31;15.20;99.90
27384;DHT22;14851;51.166;4.760;2023-01-01T02:31:53;15.10;99.90
27384;DHT22;14851;51.166;4.760;2023-01-01T02:34:22;15.00;99.90
27384;DHT22;14851;51.166;4.760;2023-01-01T02:36:50;15.00;99.90
27384;DHT22;14851;51.166;4.760;2023-01-01T02:39:18;15.00;99.90
27384;DHT22;14851;51.166;4.760;2023-01-01T02:41:49;15.00;99.90
27384;DHT22;14851;51.166;4.760;2023-01-01T02:44:17;15.00;99.90
27384;DHT22;14851;51.166;4.760;2023-01-01T02:46:44;15.00;99.90
27384;DHT22;14851;51.166;4.760;2023-01-01T02:49:09;15.00;99.90
27384;DHT22;14851;51.166;4.760;2023-01-01T03:05:30;15.10;99.90
27384;DHT22;14851;51.166;4.760;2023-01-01T03:10:09;15.10;99.90
27384;DHT22;14851;51.166;4.760;2023-01-01T03:12:43;15.10;99.90
27384;DHT22;14851;51.166;4.760;2023-01-01T03:15:13;15.10;99.90
27384;DHT22;14851;51.166;4.760;2023-01-01T03:17:44;15.10;99.90
27384;DHT22;14851;51.166;4.760;2023-01-01T03:20:16;15.00;99.90
27384;DHT22;14851;51.166;4.760;2023-01-01T03:22:45;15.10;99.90
27384;DHT22;14851;51.166;4.760;2023-01-01T03:25:15;15.10;99.90
27384;DHT22;14851;51.166;4.760;2023-01-01T03:27:50;15.00;99.90
27384;DHT22;14851;51.166;4.760;2023-01-01T03:30:17;14.90;99.90
27384;DHT22;14851;51.166;4.760;2023-01-01T03:35:49;15.00;99.90
27384;DHT22;14851;51.166;4.760;2023-01-01T03:40:53;15.10;99.90
27384;DHT22;14851;51.166;4.760;2023-01-01T03:43:24;15.00;99.90
27384;DHT22;14851;51.166;4.760;2023-01-01T03:45:53;14.90;99.90
27384;DHT22;14851;51.166;4.760;2023-01-01T03:48:22;14.90;99.90
27384;DHT22;14851;51.166;4.760;2023-01-01T03:50:49;14.90;99.90
27384;DHT22;14851;51.166;4.760;2023-01-01T03:53:36;14.90;99.90
27384;DHT22;14851;51.166;4.760;2023-01-01T03:56:09;14.90;99.90
27384;DHT22;14851;51.166;4.760;2023-01-01T03:58:39;14.90;99.90
27384;DHT22;14851;51.166;4.760;2023-01-01T04:01:10;14.90;99.90
27384;DHT22;14851;51.166;4.760;2023-01-01T04:03:36;14.90;99.90
27384;DHT22;14851;51.166;4.760;2023-01-01T04:06:03;14.90;99.90
27384;DHT22;14851;51.166;4.760;2023-01-01T04:08:31;14.80;99.90
27384;DHT22;14851;51.166;4.760;2023-01-01T04:10:58;14.80;99.90
27384;DHT22;14851;51.166;4.760;2023-01-01T04:13:24;14.80;99.90
27384;DHT22;14851;51.166;4.760;2023-01-01T04:15:52;14.80;99.90
27384;DHT22;14851;51.166;4.760;2023-01-01T04:18:19;14.80;99.90
27384;DHT22;14851;51.166;4.760;2023-01-01T04:20:45;14.80;99.90
27384;DHT22;14851;51.166;4.760;2023-01-01T04:23:12;14.80;99.90
27384;DHT22;14851;51.166;4.760;2023-01-01T04:25:38;14.70;99.90
27384;DHT22;14851;51.166;4.760;2023-01-01T04:28:04;14.70;99.90
27384;DHT22;14851;51.166;4.760;2023-01-01T04:30:33;14.70;99.90
27384;DHT22;14851;51.166;4.760;2023-01-01T04:32:59;14.60;99.90
27384;DHT22;14851;51.166;4.760;2023-01-01T04:35:25;14.60;99.90
27384;DHT22;14851;51.166;4.760;2023-01-01T04:37:50;14.60;99.90
27384;DHT22;14851;51.166;4.760;2023-01-01T04:40:17;14.50;99.90
27384;DHT22;14851;51.166;4.760;2023-01-01T04:42:44;14.50;99.90
27384;DHT22;14851;51.166;4.760;2023-01-01T04:45:10;14.50;99.90
27384;DHT22;14851;51.166;4.760;2023-01-01T04:47:39;14.50;99.90
27384;DHT22;14851;51.166;4.760;2023-01-01T04:50:05;14.50;99.90
27384;DHT22;14851;51.166;4.760;2023-01-01T04:52:31;14.50;99.90
27384;DHT22;14851;51.166;4.760;2023-01-01T04:54:57;14.50;99.90
27384;DHT22;14851;51.166;4.760;2023-01-01T04:57:23;14.50;99.90
27384;DHT22;14851;51.166;4.760;2023-01-01T04:59:48;14.50;99.90
27384;DHT22;14851;51.166;4.760;2023-01-01T05:02:15;14.50;99.90
27384;DHT22;14851;51.166;4.760;2023-01-01T05:04:40;14.50;99.90
27384;DHT22;14851;51.166;4.760;2023-01-01T05:07:07;14.50;99.90
27384;DHT22;14851;51.166;4.760;2023-01-01T05:09:33;14.50;99.90
27384;DHT22;14851;51.166;4.760;2023-01-01T05:11:59;14.50;99.90
27384;DHT22;14851;51.166;4.760;2023-01-01T05:14:25;14.40;99.90
27384;DHT22;14851;51.166;4.760;2023-01-01T05:16:52;14.40;99.90
27384;DHT22;14851;51.166;4.760;2023-01-01T05:19:19;14.50;99.90
27384;DHT22;14851;51.166;4.760;2023-01-01T05:21:45;14.40;99.90
27384;DHT22;14851;51.166;4.760;2023-01-01T05:24:12;14.40;99.90
27384;DHT22;14851;51.166;4.760;2023-01-01T05:26:40;14.40;99.90
27384;DHT22;14851;51.166;4.760;2023-01-01T05:29:07;14.40;99.90
27384;DHT22;14851;51.166;4.760;2023-01-01T05:31:34;14.40;99.90
27384;DHT22;14851;51.166;4.760;2023-01-01T05:34:00;14.40;99.90
27384;DHT22;14851;51.166;4.760;2023-01-01T05:36:33;14.30;99.90
27384;DHT22;14851;51.166;4.760;2023-01-01T05:39:03;14.40;99.90
27384;DHT22;14851;51.166;4.760;2023-01-01T05:41:29;14.30;99.90
27384;DHT22;14851;51.166;4.760;2023-01-01T05:44:00;14.30;99.90
27384;DHT22;14851;51.166;4.760;2023-01-01T05:46:26;14.30;99.90
27384;DHT22;14851;51.166;4.760;2023-01-01T05:48:52;14.30;99.90
27384;DHT22;14851;51.166;4.760;2023-01-01T05:51:22;14.30;99.90
27384;DHT22;14851;51.166;4.760;2023-01-01T05:53:49;14.30;99.90
27384;DHT22;14851;51.166;4.760;2023-01-01T05:56:15;14.30;99.90
27384;DHT22;14851;51.166;4.760;2023-01-01T05:58:41;14.20;99.90
27384;DHT22;14851;51.166;4.760;2023-01-01T06:01:11;14.30;99.90
27384;DHT22;14851;51.166;4.760;2023-01-01T06:03:41;14.30;99.90
27384;DHT22;14851;51.166;4.760;2023-01-01T06:06:11;14.20;99.90
27384;DHT22;14851;51.166;4.760;2023-01-01T06:08:37;14.20;99.90
27384;DHT22;14851;51.166;4.760;2023-01-01T06:11:04;14.20;99.90
27384;DHT22;14851;51.166;4.760;2023-01-01T06:13:30;14.20;99.90
27384;DHT22;14851;51.166;4.760;2023-01-01T06:15:57;14.10;99.90
27384;DHT22;14851;51.166;4.760;2023-01-01T06:18:24;14.10;99.90
27384;DHT22;14851;51.166;4.760;2023-01-01T06:20:49;14.00;99.90
27384;DHT22;14851;51.166;4.760;2023-01-01T06:23:15;13.90;99.90
27384;DHT22;14851;51.166;4.760;2023-01-01T06:25:41;13.90;99.90
27384;DHT22;14851;51.166;4.760;2023-01-01T06:28:08;13.80;99.90
27384;DHT22;14851;51.166;4.760;2023-01-01T06:30:33;13.70;99.90
27384;DHT22;14851;51.166;4.760;2023-01-01T06:32:59;13.70;99.90
27384;DHT22;14851;51.166;4.760;2023-01-01T06:35:25;13.70;99.90
27384;DHT22;14851;51.166;4.760;2023-01-01T06:37:52;13.60;99.90
27384;DHT22;14851;51.166;4.760;2023-01-01T06:40:18;13.50;99.90
27384;DHT22;14851;51.166;4.760;2023-01-01T06:42:44;13.40;99.90
27384;DHT22;14851;51.166;4.760;2023-01-01T06:45:10;13.40;99.90
27384;DHT22;14851;51.166;4.760;2023-01-01T06:47:38;13.30;99.90
27384;DHT22;14851;51.166;4.760;2023-01-01T06:50:05;13.30;99.90
27384;DHT22;14851;51.166;4.760;2023-01-01T06:52:31;13.20;99.90
27384;DHT22;14851;51.166;4.760;2023-01-01T06:54:57;13.20;99.90
27384;DHT22;14851;51.166;4.760;2023-01-01T06:57:23;13.10;99.90
27384;DHT22;14851;51.166;4.760;2023-01-01T06:59:51;13.10;99.90
27384;DHT22;14851;51.166;4.760;2023-01-01T07:02:17;13.10;99.90
27384;DHT22;14851;51.166;4.760;2023-01-01T07:04:43;13.00;99.90
27384;DHT22;14851;51.166;4.760;2023-01-01T07:07:11;13.10;99.90
27384;DHT22;14851;51.166;4.760;2023-01-01T07:09:39;13.10;99.90
27384;DHT22;14851;51.166;4.760;2023-01-01T07:12:05;13.10;99.90
27384;DHT22;14851;51.166;4.760;2023-01-01T07:14:30;13.10;99.90
27384;DHT22;14851;51.166;4.760;2023-01-01T07:16:56;13.10;99.90
27384;DHT22;14851;51.166;4.760;2023-01-01T07:19:22;13.00;99.90
27384;DHT22;14851;51.166;4.760;2023-01-01T07:21:52;13.00;99.90
27384;DHT22;14851;51.166;4.760;2023-01-01T07:24:18;13.10;99.90
27384;DHT22;14851;51.166;4.760;2023-01-01T07:26:44;13.00;99.90
27384;DHT22;14851;51.166;4.760;2023-01-01T07:29:11;13.00;99.90
27384;DHT22;14851;51.166;4.760;2023-01-01T07:31:40;13.00;99.90
27384;DHT22;14851;51.166;4.760;2023-01-01T07:34:08;13.00;99.90
27384;DHT22;14851;51.166;4.760;2023-01-01T07:36:37;13.00;99.90
27384;DHT22;14851;51.166;4.760;2023-01-01T07:39:03;13.00;99.90
27384;DHT22;14851;51.166;4.760;2023-01-01T07:41:30;13.00;99.90
27384;DHT22;14851;51.166;4.760;2023-01-01T07:43:57;13.00;99.90
27384;DHT22;14851;51.166;4.760;2023-01-01T07:46:23;12.90;99.90
27384;DHT22;14851;51.166;4.760;2023-01-01T07:48:49;12.90;99.90
27384;DHT22;14851;51.166;4.760;2023-01-01T07:51:14;12.80;99.90
27384;DHT22;14851;51.166;4.760;2023-01-01T07:53:40;12.80;99.90
27384;DHT22;14851;51.166;4.760;2023-01-01T07:56:06;12.80;99.90
27384;DHT22;14851;51.166;4.760;2023-01-01T07:58:32;12.80;99.90
27384;DHT22;14851;51.166;4.760;2023-01-01T08:01:00;12.80;99.90
27384;DHT22;14851;51.166;4.760;2023-01-01T08:03:26;12.70;99.90
27384;DHT22;14851;51.166;4.760;2023-01-01T08:05:52;12.70;99.90
27384;DHT22;14851;51.166;4.760;2023-01-01T08:08:18;12.60;99.90
27384;DHT22;14851;51.166;4.760;2023-01-01T08:10:43;12.60;99.90
27384;DHT22;14851;51.166;4.760;2023-01-01T08:13:09;12.60;99.90
27384;DHT22;14851;51.166;4.760;2023-01-01T08:15:35;12.70;99.90
27384;DHT22;14851;51.166;4.760;2023-01-01T08:18:02;12.80;99.90
27384;DHT22;14851;51.166;4.760;2023-01-01T08:20:29;13.00;99.90
27384;DHT22;14851;51.166;4.760;2023-01-01T08:22:55;13.00;99.90
27384;DHT22;14851;51.166;4.760;2023-01-01T08:25:21;13.00;99.90
27384;DHT22;14851;51.166;4.760;2023-01-01T08:27:46;13.00;99.90
27384;DHT22;14851;51.166;4.760;2023-01-01T08:30:12;13.00;99.90
27384;DHT22;14851;51.166;4.760;2023-01-01T08:32:38;13.00;99.90
27384;DHT22;14851;51.166;4.760;2023-01-01T08:35:05;13.10;99.90
27384;DHT22;14851;51.166;4.760;2023-01-01T08:37:31;13.00;99.90
27384;DHT22;14851;51.166;4.760;2023-01-01T08:39:56;13.00;99.90
27384;DHT22;14851;51.166;4.760;2023-01-01T08:42:26;12.90;99.90
27384;DHT22;14851;51.166;4.760;2023-01-01T08:44:52;12.80;99.90
27384;DHT22;14851;51.166;4.760;2023-01-01T08:47:19;12.70;99.90
27384;DHT22;14851;51.166;4.760;2023-01-01T08:49:45;12.70;99.90
27384;DHT22;14851;51.166;4.760;2023-01-01T08:52:11;12.80;99.90
27384;DHT22;14851;51.166;4.760;2023-01-01T08:54:37;12.80;99.90
27384;DHT22;14851;51.166;4.760;2023-01-01T08:57:03;12.80;99.90
27384;DHT22;14851;51.166;4.760;2023-01-01T08:59:30;12.90;99.90
27384;DHT22;14851;51.166;4.760;2023-01-01T09:01:56;13.00;99.90
27384;DHT22;14851;51.166;4.760;2023-01-01T09:04:23;13.00;99.90
27384;DHT22;14851;51.166;4.760;2023-01-01T09:06:49;13.00;99.90
27384;DHT22;14851;51.166;4.760;2023-01-01T09:09:16;13.00;99.90
27384;DHT22;14851;51.166;4.760;2023-01-01T09:11:49;13.00;99.90
27384;DHT22;14851;51.166;4.760;2023-01-01T09:14:16;13.00;99.90
27384;DHT22;14851;51.166;4.760;2023-01-01T09:16:41;12.90;99.90
27384;DHT22;14851;51.166;4.760;2023-01-01T09:19:07;12.90;99.90
27384;DHT22;14851;51.166;4.760;2023-01-01T09:21:36;12.90;99.90
27384;DHT22;14851;51.166;4.760;2023-01-01T09:24:02;12.90;99.90
27384;DHT22;14851;51.166;4.760;2023-01-01T09:26:27;13.00;99.90
27384;DHT22;14851;51.166;4.760;2023-01-01T09:28:53;12.90;99.90
27384;DHT22;14851;51.166;4.760;2023-01-01T09:31:19;13.00;99.90
27384;DHT22;14851;51.166;4.760;2023-01-01T09:33:47;13.00;99.90
27384;DHT22;14851;51.166;4.760;2023-01-01T09:36:14;13.00;99.90
27384;DHT22;14851;51.166;4.760;2023-01-01T09:38:50;13.00;99.90
27384;DHT22;14851;51.166;4.760;2023-01-01T09:43:54;13.00;99.90
27384;DHT22;14851;51.166;4.760;2023-01-01T09:46:24;13.10;99.90
27384;DHT22;14851;51.166;4.760;2023-01-01T09:48:52;13.10;99.90
27384;DHT22;14851;51.166;4.760;2023-01-01T09:51:19;13.10;99.90
27384;DHT22;14851;51.166;4.760;2023-01-01T09:56:19;13.00;99.90
27384;DHT22;14851;51.166;4.760;2023-01-01T09:58:46;13.00;99.90
27384;DHT22;14851;51.166;4.760;2023-01-01T10:01:17;13.00;99.90
27384;DHT22;14851;51.166;4.760;2023-01-01T10:13:52;13.00;99.90
27384;DHT22;14851;51.166;4.760;2023-01-01T10:16:33;13.10;99.90
27384;DHT22;14851;51.166;4.760;2023-01-01T10:19:10;13.10;99.90
27384;DHT22;14851;51.166;4.760;2023-01-01T10:21:40;13.10;99.90
27384;DHT22;14851;51.166;4.760;2023-01-01T10:24:15;13.10;99.90
27384;DHT22;14851;51.166;4.760;2023-01-01T10:26:46;13.10;99.90
27384;DHT22;14851;51.166;4.760;2023-01-01T10:29:16;13.10;99.90
27384;DHT22;14851;51.166;4.760;2023-01-01T10:31:44;13.10;99.90
27384;DHT22;14851;51.166;4.760;2023-01-01T10:34:18;13.10;99.90
27384;DHT22;14851;51.166;4.760;2023-01-01T10:36:50;13.10;99.90
27384;DHT22;14851;51.166;4.760;2023-01-01T10:39:17;13.20;99.90
27384;DHT22;14851;51.166;4.760;2023-01-01T10:41:43;13.30;99.90
27384;DHT22;14851;51.166;4.760;2023-01-01T10:44:09;13.30;99.90
27384;DHT22;14851;51.166;4.760;2023-01-01T10:46:36;13.20;99.90
27384;DHT22;14851;51.166;4.760;2023-01-01T10:51:33;13.30;99.90
27384;DHT22;14851;51.166;4.760;2023-01-01T10:54:02;13.30;99.90
27384;DHT22;14851;51.166;4.760;2023-01-01T10:56:38;13.40;99.90
27384;DHT22;14851;51.166;4.760;2023-01-01T10:59:07;13.50;99.90
27384;DHT22;14851;51.166;4.760;2023-01-01T11:01:55;13.40;99.90
27384;DHT22;14851;51.166;4.760;2023-01-01T11:04:32;13.50;99.90
27384;DHT22;14851;51.166;4.760;2023-01-01T11:06:59;13.50;99.90
27384;DHT22;14851;51.166;4.760;2023-01-01T11:09:32;13.60;99.90
27384;DHT22;14851;51.166;4.760;2023-01-01T11:12:02;13.60;99.90
27384;DHT22;14851;51.166;4.760;2023-01-01T11:17:07;13.60;99.90
27384;DHT22;14851;51.166;4.760;2023-01-01T11:19:36;13.70;99.90
27384;DHT22;14851;51.166;4.760;2023-01-01T11:22:04;13.80;99.90
27384;DHT22;14851;51.166;4.760;2023-01-01T11:24:33;13.90;99.90
27384;DHT22;14851;51.166;4.760;2023-01-01T11:29:38;13.80;99.90
27384;DHT22;14851;51.166;4.760;2023-01-01T11:32:05;13.70;99.90
27384;DHT22;14851;51.166;4.760;2023-01-01T11:34:38;13.70;99.90
27384;DHT22;14851;51.166;4.760;2023-01-01T11:39:44;13.60;99.90
27384;DHT22;14851;51.166;4.760;2023-01-01T11:42:16;13.60;99.90
27384;DHT22;14851;51.166;4.760;2023-01-01T11:44:44;13.60;99.90
27384;DHT22;14851;51.166;4.760;2023-01-01T11:47:20;13.60;99.90
27384;DHT22;14851;51.166;4.760;2023-01-01T11:49:51;13.50;99.90
27384;DHT22;14851;51.166;4.760;2023-01-01T11:55:10;13.60;99.90
27384;DHT22;14851;51.166;4.760;2023-01-01T11:57:37;13.60;99.90
27384;DHT22;14851;51.166;4.760;2023-01-01T12:00:04;13.60;99.90
27384;DHT22;14851;51.166;4.760;2023-01-01T12:03:21;13.70;99.90
27384;DHT22;14851;51.166;4.760;2023-01-01T12:05:46;13.60;99.90
27384;DHT22;14851;51.166;4.760;2023-01-01T12:08:15;13.70;99.90
27384;DHT22;14851;51.166;4.760;2023-01-01T12:10:52;13.70;99.90
27384;DHT22;14851;51.166;4.760;2023-01-01T12:13:21;13.70;99.90
27384;DHT22;14851;51.166;4.760;2023-01-01T12:15:55;13.70;99.90
27384;DHT22;14851;51.166;4.760;2023-01-01T12:21:00;13.70;99.90
27384;DHT22;14851;51.166;4.760;2023-01-01T12:23:28;13.70;99.90
27384;DHT22;14851;51.166;4.760;2023-01-01T12:31:18;13.80;99.90
27384;DHT22;14851;51.166;4.760;2023-01-01T12:34:06;13.70;99.90
27384;DHT22;14851;51.166;4.760;2023-01-01T12:36:52;13.70;99.90
27384;DHT22;14851;51.166;4.760;2023-01-01T12:39:34;13.70;99.90
27384;DHT22;14851;51.166;4.760;2023-01-01T12:47:28;13.70;99.90
27384;DHT22;14851;51.166;4.760;2023-01-01T12:52:35;13.60;99.90
27384;DHT22;14851;51.166;4.760;2023-01-01T12:57:50;13.60;99.90
27384;DHT22;14851;51.166;4.760;2023-01-01T13:00:19;13.50;99.90
27384;DHT22;14851;51.166;4.760;2023-01-01T13:02:50;13.60;99.90
27384;DHT22;14851;51.166;4.760;2023-01-01T13:05:40;13.60;99.90
27384;DHT22;14851;51.166;4.760;2023-01-01T13:08:05;13.60;99.90
27384;DHT22;14851;51.166;4.760;2023-01-01T13:12:59;13.70;99.90
27384;DHT22;14851;51.166;4.760;2023-01-01T13:18:07;13.60;99.90
27384;DHT22;14851;51.166;4.760;2023-01-01T13:20:43;13.70;99.90
27384;DHT22;14851;51.166;4.760;2023-01-01T13:28:38;13.60;99.90
27384;DHT22;14851;51.166;4.760;2023-01-01T13:31:05;13.80;99.90
27384;DHT22;14851;51.166;4.760;2023-01-01T13:33:31;13.70;99.90
27384;DHT22;14851;51.166;4.760;2023-01-01T13:38:48;13.50;99.90
27384;DHT22;14851;51.166;4.760;2023-01-01T13:46:37;13.50;99.90
27384;DHT22;14851;51.166;4.760;2023-01-01T13:51:50;13.50;99.90
27384;DHT22;14851;51.166;4.760;2023-01-01T13:54:24;13.40;99.90
27384;DHT22;14851;51.166;4.760;2023-01-01T13:56:57;13.40;99.90
27384;DHT22;14851;51.166;4.760;2023-01-01T13:59:34;13.40;99.90
27384;DHT22;14851;51.166;4.760;2023-01-01T14:04:57;13.40;99.90
27384;DHT22;14851;51.166;4.760;2023-01-01T14:09:52;13.30;99.90
27384;DHT22;14851;51.166;4.760;2023-01-01T14:12:20;13.30;99.90
27384;DHT22;14851;51.166;4.760;2023-01-01T14:14:46;13.30;99.90
27384;DHT22;14851;51.166;4.760;2023-01-01T14:17:14;13.30;99.90
27384;DHT22;14851;51.166;4.760;2023-01-01T14:19:43;13.40;99.90
27384;DHT22;14851;51.166;4.760;2023-01-01T14:22:09;13.30;99.90
27384;DHT22;14851;51.166;4.760;2023-01-01T14:24:37;13.30;99.90
27384;DHT22;14851;51.166;4.760;2023-01-01T14:27:04;13.30;99.90
27384;DHT22;14851;51.166;4.760;2023-01-01T14:29:30;13.30;99.90
27384;DHT22;14851;51.166;4.760;2023-01-01T14:31:57;13.30;99.90
27384;DHT22;14851;51.166;4.760;2023-01-01T14:34:31;13.30;99.90
27384;DHT22;14851;51.166;4.760;2023-01-01T14:36:58;13.30;99.90
27384;DHT22;14851;51.166;4.760;2023-01-01T14:39:26;13.30;99.90
27384;DHT22;14851;51.166;4.760;2023-01-01T14:41:54;13.20;99.90
27384;DHT22;14851;51.166;4.760;2023-01-01T14:47:24;13.30;99.90
27384;DHT22;14851;51.166;4.760;2023-01-01T14:49:54;13.30;99.90
27384;DHT22;14851;51.166;4.760;2023-01-01T14:52:25;13.20;99.90
27384;DHT22;14851;51.166;4.760;2023-01-01T14:54:52;13.20;99.90
27384;DHT22;14851;51.166;4.760;2023-01-01T14:57:27;13.20;99.90
27384;DHT22;14851;51.166;4.760;2023-01-01T14:59:55;13.10;99.90
27384;DHT22;14851;51.166;4.760;2023-01-01T15:04:50;13.10;99.90
27384;DHT22;14851;51.166;4.760;2023-01-01T15:07:26;13.10;99.90
27384;DHT22;14851;51.166;4.760;2023-01-01T15:09:53;13.20;99.90
27384;DHT22;14851;51.166;4.760;2023-01-01T15:12:20;13.10;99.90
27384;DHT22;14851;51.166;4.760;2023-01-01T15:14:48;13.10;99.90
27384;DHT22;14851;51.166;4.760;2023-01-01T15:17:15;13.10;99.90
27384;DHT22;14851;51.166;4.760;2023-01-01T15:19:43;13.10;99.90
27384;DHT22;14851;51.166;4.760;2023-01-01T15:22:10;13.00;99.90
27384;DHT22;14851;51.166;4.760;2023-01-01T15:24:36;13.00;99.90
27384;DHT22;14851;51.166;4.760;2023-01-01T15:27:04;13.00;99.90
27384;DHT22;14851;51.166;4.760;2023-01-01T15:29:35;13.00;99.90
27384;DHT22;14851;51.166;4.760;2023-01-01T15:32:03;13.00;99.90
27384;DHT22;14851;51.166;4.760;2023-01-01T15:34:30;13.00;99.90
27384;DHT22;14851;51.166;4.760;2023-01-01T15:37:05;13.00;99.90
27384;DHT22;14851;51.166;4.760;2023-01-01T15:39:32;13.00;99.90
27384;DHT22;14851;51.166;4.760;2023-01-01T15:43:07;13.00;99.90
27384;DHT22;14851;51.166;4.760;2023-01-01T15:45:58;13.00;99.90
27384;DHT22;14851;51.166;4.760;2023-01-01T15:50:31;13.00;99.90
27384;DHT22;14851;51.166;4.760;2023-01-01T15:55:44;12.90;99.90
27384;DHT22;14851;51.166;4.760;2023-01-01T16:01:12;13.00;99.90
27384;DHT22;14851;51.166;4.760;2023-01-01T16:03:40;12.90;99.90
27384;DHT22;14851;51.166;4.760;2023-01-01T16:06:13;12.90;99.90
27384;DHT22;14851;51.166;4.760;2023-01-01T16:08:39;12.90;99.90
27384;DHT22;14851;51.166;4.760;2023-01-01T16:11:05;12.80;99.90
27384;DHT22;14851;51.166;4.760;2023-01-01T16:13:31;12.80;99.90
27384;DHT22;14851;51.166;4.760;2023-01-01T16:15:58;12.80;99.90
27384;DHT22;14851;51.166;4.760;2023-01-01T16:18:37;12.80;99.90
27384;DHT22;14851;51.166;4.760;2023-01-01T16:21:03;12.80;99.90
27384;DHT22;14851;51.166;4.760;2023-01-01T16:23:32;12.80;99.90
27384;DHT22;14851;51.166;4.760;2023-01-01T16:25:58;12.70;99.90
27384;DHT22;14851;51.166;4.760;2023-01-01T16:28:24;12.80;99.90
27384;DHT22;14851;51.166;4.760;2023-01-01T16:30:51;12.70;99.90
27384;DHT22;14851;51.166;4.760;2023-01-01T16:33:18;12.70;99.90
27384;DHT22;14851;51.166;4.760;2023-01-01T16:35:45;12.70;99.90
27384;DHT22;14851;51.166;4.760;2023-01-01T16:38:11;12.70;99.90
27384;DHT22;14851;51.166;4.760;2023-01-01T16:40:37;12.70;99.90
27384;DHT22;14851;51.166;4.760;2023-01-01T16:43:04;12.60;99.90
27384;DHT22;14851;51.166;4.760;2023-01-01T16:45:34;12.60;99.90
27384;DHT22;14851;51.166;4.760;2023-01-01T16:48:01;12.50;99.90
27384;DHT22;14851;51.166;4.760;2023-01-01T16:50:28;12.50;99.90
27384;DHT22;14851;51.166;4.760;2023-01-01T16:52:53;12.50;99.90
27384;DHT22;14851;51.166;4.760;2023-01-01T16:55:20;12.50;99.90
27384;DHT22;14851;51.166;4.760;2023-01-01T16:57:46;12.50;99.90
27384;DHT22;14851;51.166;4.760;2023-01-01T17:00:13;12.40;99.90
27384;DHT22;14851;51.166;4.760;2023-01-01T17:02:44;12.30;99.90
27384;DHT22;14851;51.166;4.760;2023-01-01T17:05:13;12.30;99.90
27384;DHT22;14851;51.166;4.760;2023-01-01T17:07:39;12.30;99.90
27384;DHT22;14851;51.166;4.760;2023-01-01T17:10:05;12.30;99.90
27384;DHT22;14851;51.166;4.760;2023-01-01T17:12:32;12.20;99.90
27384;DHT22;14851;51.166;4.760;2023-01-01T17:14:58;12.20;99.90
27384;DHT22;14851;51.166;4.760;2023-01-01T17:17:25;12.20;99.90
27384;DHT22;14851;51.166;4.760;2023-01-01T17:19:51;12.20;99.90
27384;DHT22;14851;51.166;4.760;2023-01-01T17:22:18;12.10;99.90
27384;DHT22;14851;51.166;4.760;2023-01-01T17:24:46;12.10;99.90
27384;DHT22;14851;51.166;4.760;2023-01-01T17:27:12;12.10;99.90
27384;DHT22;14851;51.166;4.760;2023-01-01T17:29:38;12.10;99.90
27384;DHT22;14851;51.166;4.760;2023-01-01T17:32:05;12.00;99.90
27384;DHT22;14851;51.166;4.760;2023-01-01T17:34:33;12.00;99.90
27384;DHT22;14851;51.166;4.760;2023-01-01T17:37:00;12.00;99.90
27384;DHT22;14851;51.166;4.760;2023-01-01T17:39:31;12.00;99.90